Time;durP1;ratioP1;P1;durP2;ratioP2;P2;SDS_P1;SDS_P2;PMS_P1;PMS_P2;Temp;Humidity;BMP_temperature;BMP_pressure;BME280_temperature;BME280_humidity;BME280_pressure;Samples;Min_cycle;Max_cycle;Signal;HPM_P1;HPM_P2
2023/04/02 00:00:17;;;;;;;4.03;2.70;;;10.20;99.90;;;;;;10388801;28;20242;-64
2023/04/02 00:05:30;;;;;;;4.83;2.60;;;10.10;99.90;;;;;;10380160;28;20193;-65
2023/04/02 00:10:51;;;;;;;4.23;2.70;;;10.10;99.90;;;;;;10377261;28;20225;-65
2023/04/02 00:15:56;;;;;;;3.53;3.13;;;10.00;99.90;;;;;;10383140;28;20220;-65
2023/04/02 00:21:18;;;;;;;5.67;3.20;;;9.90;99.90;;;;;;10380906;28;20279;-66
2023/04/02 00:26:31;;;;;;;4.43;3.07;;;9.90;99.90;;;;;;10379151;28;20657;-66
2023/04/02 00:31:36;;;;;;;4.33;3.17;;;9.80;99.90;;;;;;10383093;28;20236;-66
2023/04/02 00:36:37;;;;;;;4.03;3.27;;;9.90;99.90;;;;;;10389151;28;20228;-64
2023/04/02 00:41:38;;;;;;;5.03;2.90;;;9.90;99.90;;;;;;10375776;28;20229;-65
2023/04/02 00:46:48;;;;;;;3.70;3.07;;;9.80;99.90;;;;;;10379730;28;20235;-65
2023/04/02 00:51:55;;;;;;;3.37;2.87;;;9.90;99.90;;;;;;10380799;28;20286;-65
2023/04/02 00:56:57;;;;;;;3.23;2.97;;;9.90;99.90;;;;;;10391156;28;20595;-63
2023/04/02 01:02:18;;;;;;;3.40;3.10;;;9.90;99.90;;;;;;10420791;28;20660;-64
2023/04/02 01:07:29;;;;;;;4.10;3.23;;;9.80;99.90;;;;;;10390313;28;20240;-65
2023/04/02 01:12:49;;;;;;;6.87;3.20;;;9.80;99.90;;;;;;10381549;28;20575;-65
2023/04/02 01:18:17;;;;;;;7.37;3.60;;;9.80;99.90;;;;;;10392698;28;20279;-64
2023/04/02 01:23:27;;;;;;;4.20;3.23;;;9.90;99.90;;;;;;10394426;28;20224;-66
2023/04/02 01:28:44;;;;;;;4.77;3.23;;;9.90;99.90;;;;;;10387918;28;20237;-65
2023/04/02 01:33:47;;;;;;;6.30;3.97;;;9.90;99.90;;;;;;10381905;28;20532;-64
2023/04/02 01:39:17;;;;;;;4.43;3.50;;;10.00;99.90;;;;;;10389969;28;20228;-68
2023/04/02 01:44:46;;;;;;;3.70;3.33;;;10.00;99.90;;;;;;10382110;28;20359;-65
2023/04/02 01:49:47;;;;;;;5.60;3.87;;;10.00;99.90;;;;;;10379147;28;20404;-66
2023/04/02 01:54:47;;;;;;;4.73;3.43;;;10.00;99.90;;;;;;10392592;28;20431;-66
2023/04/02 01:59:48;;;;;;;3.87;3.47;;;10.00;99.90;;;;;;10386501;28;20233;-65
2023/04/02 02:04:49;;;;;;;4.77;3.37;;;10.00;99.90;;;;;;10388941;28;20220;-65
2023/04/02 02:09:50;;;;;;;6.30;3.97;;;10.00;99.90;;;;;;10420280;28;20225;-65
2023/04/02 02:14:51;;;;;;;3.70;2.67;;;10.00;99.90;;;;;;10389374;28;20315;-64
2023/04/02 02:19:55;;;;;;;4.73;2.87;;;10.00;99.90;;;;;;10382598;28;20230;-64
2023/04/02 02:24:59;;;;;;;3.00;2.70;;;10.00;99.90;;;;;;10390023;28;20222;-65
2023/04/02 02:30:39;;;;;;;3.13;2.70;;;10.00;99.90;;;;;;10385307;28;20209;-66
2023/04/02 02:35:54;;;;;;;4.57;3.17;;;10.00;99.90;;;;;;10378904;28;20217;-65
2023/04/02 02:40:59;;;;;;;4.00;2.97;;;10.00;99.90;;;;;;10388197;28;20311;-64
2023/04/02 02:46:03;;;;;;;3.10;2.80;;;9.90;99.90;;;;;;10388649;28;20237;-65
2023/04/02 02:51:10;;;;;;;3.73;2.80;;;9.90;99.90;;;;;;10389373;28;20247;-64
2023/04/02 02:56:11;;;;;;;4.20;3.00;;;9.90;99.90;;;;;;10382034;28;20224;-63
2023/04/02 03:01:12;;;;;;;3.03;2.57;;;9.90;99.90;;;;;;10387039;28;20364;-63
2023/04/02 03:06:19;;;;;;;4.10;3.30;;;9.90;99.90;;;;;;10382848;28;20224;-65
2023/04/02 03:11:33;;;;;;;5.63;2.60;;;9.90;99.90;;;;;;10391382;28;20237;-64
2023/04/02 03:16:41;;;;;;;4.17;2.80;;;9.90;99.90;;;;;;10380438;28;20225;-64
2023/04/02 03:22:01;;;;;;;3.53;2.67;;;9.80;99.90;;;;;;10383913;28;20228;-63
2023/04/02 03:27:08;;;;;;;5.30;3.03;;;9.80;99.90;;;;;;10387980;28;20235;-64
2023/04/02 03:32:24;;;;;;;4.40;2.60;;;9.80;99.90;;;;;;10388479;28;20228;-65
2023/04/02 03:37:52;;;;;;;7.30;3.20;;;9.90;99.90;;;;;;10383646;28;20220;-63
2023/04/02 03:43:01;;;;;;;5.20;3.10;;;9.80;99.90;;;;;;10382192;28;20227;-65
2023/04/02 03:48:33;;;;;;;4.90;2.77;;;9.90;99.90;;;;;;10382425;28;20224;-64
2023/04/02 03:53:33;;;;;;;3.63;2.67;;;9.80;99.90;;;;;;10373430;28;20303;-66
2023/04/02 03:58:41;;;;;;;3.53;2.63;;;9.80;99.90;;;;;;10382682;28;20282;-65
2023/04/02 04:03:49;;;;;;;4.53;2.63;;;9.80;99.90;;;;;;10388829;28;20213;-64
2023/04/02 04:08:54;;;;;;;3.67;2.90;;;9.80;99.90;;;;;;10376250;28;20220;-66
2023/04/02 04:14:18;;;;;;;5.57;3.20;;;9.80;99.90;;;;;;10381783;28;20213;-64
2023/04/02 04:19:36;;;;;;;4.90;3.53;;;9.80;99.90;;;;;;10380563;28;20252;-64
2023/04/02 04:24:38;;;;;;;4.93;3.63;;;9.80;99.90;;;;;;10376444;28;20220;-65
2023/04/02 04:29:57;;;;;;;5.23;4.13;;;9.80;99.90;;;;;;10393793;28;20655;-64
2023/04/02 04:35:20;;;;;;;8.40;4.30;;;9.80;99.90;;;;;;10395677;28;20217;-66
2023/04/02 04:40:44;;;;;;;6.00;4.77;;;9.70;99.90;;;;;;10396261;28;20704;-64
2023/04/02 04:45:53;;;;;;;8.77;4.60;;;9.70;99.90;;;;;;10384433;28;20263;-64
2023/04/02 04:51:03;;;;;;;6.27;4.90;;;9.70;99.90;;;;;;10415796;28;20224;-65
2023/04/02 04:56:05;;;;;;;6.47;5.27;;;9.70;99.90;;;;;;10392459;28;20295;-65
2023/04/02 05:01:21;;;;;;;7.47;5.67;;;9.70;99.90;;;;;;10391852;28;20316;-65
2023/04/02 05:07:11;;;;;;;5.47;4.90;;;9.70;99.90;;;;;;10388935;28;20224;-65
2023/04/02 05:12:25;;;;;;;6.67;5.40;;;9.80;99.90;;;;;;10391785;28;20231;-66
2023/04/02 05:17:34;;;;;;;6.73;5.40;;;9.70;99.90;;;;;;10424637;28;20216;-68
2023/04/02 05:22:45;;;;;;;5.97;5.00;;;9.70;99.90;;;;;;10413447;28;20229;-65
2023/04/02 05:27:57;;;;;;;6.57;5.17;;;9.80;99.90;;;;;;10393501;28;20221;-65
2023/04/02 05:33:30;;;;;;;6.73;5.63;;;9.80;99.90;;;;;;10388750;28;20220;-65
2023/04/02 05:38:34;;;;;;;6.80;5.13;;;9.80;99.90;;;;;;10375673;28;20225;-65
2023/04/02 05:43:37;;;;;;;5.23;4.73;;;9.90;99.90;;;;;;10420056;28;20283;-65
2023/04/02 05:48:42;;;;;;;5.87;4.70;;;10.00;99.90;;;;;;10392458;28;20737;-64
2023/04/02 05:53:53;;;;;;;6.43;4.83;;;10.00;99.90;;;;;;10388837;28;20307;-64
2023/04/02 05:58:59;;;;;;;5.00;4.60;;;10.10;99.90;;;;;;10390560;28;20861;-64
2023/04/02 06:04:10;;;;;;;4.70;4.20;;;10.20;99.90;;;;;;10386403;28;20213;-67
2023/04/02 06:09:18;;;;;;;6.00;4.70;;;10.40;99.90;;;;;;10390544;28;20303;-64
2023/04/02 06:14:18;;;;;;;4.67;4.20;;;10.50;99.90;;;;;;10387234;28;20221;-65
2023/04/02 06:19:28;;;;;;;5.10;4.60;;;10.70;99.90;;;;;;10392014;28;20220;-64
2023/04/02 06:24:29;;;;;;;6.37;4.50;;;10.80;99.90;;;;;;10385981;28;20602;-65
2023/04/02 06:29:37;;;;;;;4.37;3.97;;;10.90;99.90;;;;;;10373052;28;20217;-65
2023/04/02 06:34:40;;;;;;;4.53;3.93;;;11.00;99.90;;;;;;10393947;28;20224;-65
2023/04/02 06:39:40;;;;;;;5.60;3.70;;;11.10;99.90;;;;;;10389405;28;20327;-65
2023/04/02 06:44:41;;;;;;;4.33;3.20;;;11.30;99.90;;;;;;10388020;28;20308;-66
2023/04/02 06:49:47;;;;;;;4.73;3.50;;;11.40;99.90;;;;;;10382335;28;20708;-65
2023/04/02 06:54:48;;;;;;;3.97;3.57;;;11.50;99.90;;;;;;10389093;28;20243;-67
2023/04/02 06:59:48;;;;;;;5.10;3.90;;;11.70;99.90;;;;;;10391769;28;20235;-66
2023/04/02 07:04:49;;;;;;;4.67;3.83;;;11.80;99.90;;;;;;10387422;28;20270;-66
2023/04/02 07:09:50;;;;;;;4.80;3.50;;;11.90;99.90;;;;;;10380210;28;20303;-65
2023/04/02 07:14:53;;;;;;;4.63;3.77;;;12.20;99.90;;;;;;10386869;28;20220;-64
2023/04/02 07:19:53;;;;;;;9.70;4.63;;;12.30;99.90;;;;;;10376224;28;20260;-66
2023/04/02 07:24:54;;;;;;;3.80;3.50;;;12.40;99.90;;;;;;10367333;28;20231;-65
2023/04/02 07:29:55;;;;;;;5.57;3.70;;;12.50;99.90;;;;;;10379427;28;20246;-66
2023/04/02 07:34:56;;;;;;;3.80;3.47;;;12.60;99.90;;;;;;10379231;28;20700;-64
2023/04/02 07:39:57;;;;;;;7.27;3.73;;;12.70;99.90;;;;;;10382485;28;20864;-64
2023/04/02 07:44:57;;;;;;;5.50;3.70;;;12.70;99.90;;;;;;10386859;28;20714;-63
2023/04/02 07:49:58;;;;;;;6.80;4.63;;;12.50;99.90;;;;;;10418873;28;20229;-64
2023/04/02 07:54:58;;;;;;;5.70;3.83;;;12.50;99.90;;;;;;10380742;28;20254;-64
2023/04/02 07:59:59;;;;;;;1.83;1.70;;;12.30;99.90;;;;;;10418677;28;20254;-64
2023/04/02 08:05:00;;;;;;;1.87;1.00;;;11.90;99.90;;;;;;10422341;28;20923;-65
2023/04/02 08:10:01;;;;;;;0.20;0.20;;;11.00;99.90;;;;;;10413552;28;20228;-68
2023/04/02 08:15:05;;;;;;;0.63;0.10;;;10.50;99.90;;;;;;10392253;28;20224;-68
2023/04/02 08:20:06;;;;;;;0.20;0.20;;;9.90;99.90;;;;;;10397838;28;20224;-67
2023/04/02 08:25:10;;;;;;;0.40;0.33;;;9.50;99.90;;;;;;10421140;28;20196;-68
2023/04/02 08:30:12;;;;;;;0.30;0.30;;;9.40;99.90;;;;;;10391609;28;20206;-69
2023/04/02 08:35:15;;;;;;;0.23;0.23;;;9.30;99.90;;;;;;10391277;28;20236;-67
2023/04/02 08:40:28;;;;;;;0.47;0.30;;;9.30;99.90;;;;;;10389994;28;20209;-69
2023/04/02 08:46:00;;;;;;;0.40;0.40;;;9.20;99.90;;;;;;10395395;28;20184;-68
2023/04/02 08:51:03;;;;;;;0.40;0.20;;;9.10;99.90;;;;;;10384614;28;20303;-68
2023/04/02 08:56:16;;;;;;;0.70;0.40;;;9.20;99.90;;;;;;10392472;28;20700;-68
2023/04/02 09:01:41;;;;;;;0.63;0.40;;;9.10;99.90;;;;;;10420643;28;20261;-66
2023/04/02 09:06:42;;;;;;;0.50;0.50;;;9.20;99.90;;;;;;10413461;28;20221;-71
2023/04/02 09:11:59;;;;;;;0.93;0.33;;;9.20;99.90;;;;;;10390299;28;20649;-69
2023/04/02 09:17:02;;;;;;;0.60;0.20;;;9.20;99.90;;;;;;10389443;28;20691;-68
2023/04/02 09:22:16;;;;;;;0.40;0.40;;;9.20;99.90;;;;;;10386956;28;20241;-67
2023/04/02 09:27:20;;;;;;;1.50;0.50;;;9.20;99.90;;;;;;10387510;28;20224;-69
2023/04/02 09:32:51;;;;;;;0.57;0.57;;;9.10;99.90;;;;;;10388811;28;20224;-68
2023/04/02 09:38:21;;;;;;;0.60;0.60;;;9.00;99.90;;;;;;10378870;28;20356;-68
2023/04/02 09:43:23;;;;;;;0.70;0.50;;;9.20;99.90;;;;;;10388210;28;20221;-68
2023/04/02 09:48:40;;;;;;;0.60;0.60;;;9.10;99.90;;;;;;10429562;28;20272;-68
2023/04/02 09:53:44;;;;;;;1.03;1.00;;;9.30;99.90;;;;;;10395362;28;20259;-67
2023/04/02 09:59:14;;;;;;;0.70;0.70;;;9.30;99.90;;;;;;10389790;28;20290;-67
2023/04/02 10:04:43;;;;;;;1.23;1.13;;;9.50;99.90;;;;;;10389310;28;20218;-70
2023/04/02 10:10:00;;;;;;;1.40;0.67;;;9.50;99.90;;;;;;10378671;28;20255;-68
2023/04/02 10:15:03;;;;;;;2.00;0.80;;;9.60;99.90;;;;;;10391658;28;20230;-68
2023/04/02 10:20:21;;;;;;;1.10;0.70;;;9.30;99.90;;;;;;10381222;28;20243;-67
2023/04/02 10:25:26;;;;;;;1.17;0.83;;;9.20;99.90;;;;;;10384422;28;20228;-68
2023/04/02 10:30:51;;;;;;;0.50;0.50;;;9.20;99.90;;;;;;10385752;28;20295;-68
2023/04/02 10:36:10;;;;;;;1.50;0.90;;;9.10;99.90;;;;;;10380693;28;20312;-67
2023/04/02 10:41:34;;;;;;;1.00;0.60;;;9.10;99.90;;;;;;10381302;28;20260;-68
2023/04/02 10:46:46;;;;;;;0.60;0.50;;;9.30;99.90;;;;;;10385112;28;20228;-68
2023/04/02 10:51:52;;;;;;;0.80;0.80;;;9.40;99.90;;;;;;10383236;28;20220;-68
2023/04/02 10:56:56;;;;;;;1.43;0.73;;;9.60;99.90;;;;;;10388473;28;20378;-72
2023/04/02 11:02:00;;;;;;;1.03;0.77;;;9.60;99.90;;;;;;10383992;28;20229;-64
2023/04/02 11:07:10;;;;;;;1.37;0.70;;;9.90;99.90;;;;;;10382159;28;20233;-68
2023/04/02 11:12:30;;;;;;;0.80;0.80;;;9.70;99.90;;;;;;10420525;28;20240;-68
2023/04/02 11:17:31;;;;;;;1.77;0.70;;;9.50;99.90;;;;;;10399692;28;20315;-68
2023/04/02 11:22:31;;;;;;;5.37;1.10;;;9.60;99.90;;;;;;10389227;28;20232;-68
2023/04/02 11:27:33;;;;;;;1.37;0.93;;;9.70;99.90;;;;;;10388980;28;20742;-68
2023/04/02 11:32:41;;;;;;;1.27;0.70;;;9.70;99.90;;;;;;10420937;28;20239;-67
2023/04/02 11:37:44;;;;;;;3.17;1.00;;;9.60;99.90;;;;;;10384730;28;20594;-69
2023/04/02 11:42:45;;;;;;;1.90;0.90;;;9.70;99.90;;;;;;10387986;28;20260;-67
2023/04/02 11:48:06;;;;;;;1.17;0.90;;;9.60;99.90;;;;;;10382343;28;20225;-66
2023/04/02 11:53:10;;;;;;;2.10;0.73;;;9.40;99.90;;;;;;10415234;28;20767;-67
2023/04/02 11:58:29;;;;;;;0.73;0.73;;;9.60;99.90;;;;;;10388082;28;20668;-68
2023/04/02 12:03:42;;;;;;;1.67;1.03;;;9.60;99.90;;;;;;10383074;28;20267;-69
2023/04/02 12:09:03;;;;;;;0.73;0.73;;;9.70;99.90;;;;;;10377230;28;20255;-70
2023/04/02 12:14:40;;;;;;;1.80;0.77;;;9.40;99.90;;;;;;10379963;28;20228;-70
2023/04/02 12:19:46;;;;;;;1.07;0.97;;;9.30;99.90;;;;;;10366281;28;20319;-71
2023/04/02 12:24:48;;;;;;;1.47;1.17;;;9.20;99.90;;;;;;10382881;28;20586;-71
2023/04/02 12:29:52;;;;;;;1.10;0.97;;;9.20;99.90;;;;;;10419977;28;20606;-70
2023/04/02 12:34:54;;;;;;;1.03;1.03;;;9.10;99.90;;;;;;10381951;28;20227;-68
2023/04/02 12:40:14;;;;;;;0.97;0.97;;;9.10;99.90;;;;;;10377523;28;20231;-68
2023/04/02 12:45:27;;;;;;;0.90;0.90;;;9.00;99.90;;;;;;10388018;28;20224;-68
2023/04/02 12:50:28;;;;;;;1.80;1.10;;;9.00;99.90;;;;;;10385273;28;20224;-69
2023/04/02 12:55:29;;;;;;;1.23;0.90;;;8.90;99.90;;;;;;10398573;28;20215;-70
2023/04/02 13:00:31;;;;;;;1.43;1.20;;;8.90;99.90;;;;;;10389023;28;20227;-69
2023/04/02 13:05:45;;;;;;;1.50;1.20;;;8.80;99.90;;;;;;10388324;28;20228;-70
2023/04/02 13:10:52;;;;;;;2.30;1.73;;;8.90;99.90;;;;;;10390378;28;20221;-70
2023/04/02 13:16:05;;;;;;;1.47;1.37;;;8.90;99.90;;;;;;10392808;28;20230;-69
2023/04/02 13:21:23;;;;;;;2.13;1.50;;;9.00;99.90;;;;;;10391208;28;20224;-68
2023/04/02 13:26:26;;;;;;;2.10;1.90;;;8.90;99.90;;;;;;10419103;28;20290;-68
2023/04/02 13:31:28;;;;;;;1.50;1.40;;;8.90;99.90;;;;;;10388561;28;20248;-67
2023/04/02 13:36:29;;;;;;;2.43;2.03;;;9.00;99.90;;;;;;10410839;28;20245;-67
2023/04/02 13:41:33;;;;;;;1.63;1.53;;;8.80;99.90;;;;;;10395186;28;20929;-69
2023/04/02 13:46:37;;;;;;;2.10;1.80;;;8.80;99.90;;;;;;10380514;28;20710;-69
2023/04/02 13:51:52;;;;;;;2.17;1.97;;;8.80;99.90;;;;;;10385734;28;20699;-69
2023/04/02 13:56:54;;;;;;;1.60;1.50;;;8.90;99.90;;;;;;10386428;28;20662;-69
2023/04/02 14:02:02;;;;;;;1.90;1.80;;;8.60;99.90;;;;;;10388090;28;20233;-69
2023/04/02 14:07:43;;;;;;;2.13;1.80;;;8.50;99.90;;;;;;10423088;28;20235;-69
2023/04/02 14:13:09;;;;;;;3.07;2.30;;;8.30;99.90;;;;;;10384470;28;20294;-69
2023/04/02 14:18:15;;;;;;;2.30;2.17;;;8.40;99.90;;;;;;10392171;28;20220;-70
2023/04/02 14:23:34;;;;;;;2.30;2.10;;;8.40;99.90;;;;;;10389829;28;20251;-67
2023/04/02 14:28:56;;;;;;;3.00;2.57;;;8.30;99.90;;;;;;10378149;28;20221;-69
2023/04/02 14:34:32;;;;;;;4.23;2.90;;;8.10;99.90;;;;;;10389586;28;20216;-68
2023/04/02 14:39:57;;;;;;;3.50;3.17;;;8.00;99.90;;;;;;10369285;28;20762;-69
2023/04/02 14:45:04;;;;;;;3.30;3.00;;;8.10;99.90;;;;;;10415783;28;20757;-70
2023/04/02 14:50:29;;;;;;;3.17;2.93;;;8.00;99.90;;;;;;10382878;28;20228;-71
2023/04/02 14:55:36;;;;;;;3.83;3.53;;;7.90;99.90;;;;;;10386681;28;20230;-68
2023/04/02 15:00:44;;;;;;;4.00;3.60;;;8.00;99.90;;;;;;10337572;28;20261;-68
2023/04/02 15:06:00;;;;;;;4.20;3.37;;;8.10;99.90;;;;;;10343254;28;20226;-69
2023/04/02 15:11:10;;;;;;;3.70;3.40;;;8.00;99.90;;;;;;10341239;28;20376;-69
2023/04/02 15:16:20;;;;;;;4.20;3.10;;;8.00;99.90;;;;;;10345175;28;20273;-69
2023/04/02 15:21:21;;;;;;;4.17;3.40;;;7.90;99.90;;;;;;10334392;28;20695;-69
2023/04/02 15:26:41;;;;;;;4.10;3.57;;;7.90;99.90;;;;;;10345611;28;20229;-69
2023/04/02 15:31:45;;;;;;;4.00;3.60;;;7.90;99.90;;;;;;10328322;28;20601;-69
2023/04/02 15:37:13;;;;;;;4.73;3.70;;;7.80;99.90;;;;;;10343444;28;20224;-68
2023/04/02 15:42:38;;;;;;;3.77;3.47;;;7.70;99.90;;;;;;10348220;28;20316;-67
2023/04/02 15:47:56;;;;;;;3.43;3.13;;;7.50;99.90;;;;;;10327190;28;20222;-68
2023/04/02 15:53:15;;;;;;;4.53;3.50;;;7.50;99.90;;;;;;10343629;28;20221;-68
2023/04/02 15:58:34;;;;;;;3.60;3.30;;;7.40;99.90;;;;;;10347966;28;20225;-68
2023/04/02 16:04:10;;;;;;;3.60;3.23;;;7.40;99.90;;;;;;10358705;28;20680;-69
2023/04/02 16:09:36;;;;;;;3.90;3.40;;;7.40;99.90;;;;;;10357886;28;20747;-66
2023/04/02 16:14:39;;;;;;;3.60;3.00;;;7.40;99.90;;;;;;10383531;28;20214;-69
2023/04/02 16:20:18;;;;;;;3.23;3.03;;;7.50;99.90;;;;;;10387002;28;20236;-68
2023/04/02 16:25:22;;;;;;;3.67;3.37;;;7.40;99.90;;;;;;10394889;28;20247;-68
2023/04/02 16:30:44;;;;;;;2.93;2.73;;;7.40;99.90;;;;;;10419099;28;20202;-67
2023/04/02 16:36:24;;;;;;;3.23;3.03;;;7.40;99.90;;;;;;10385182;28;21009;-67
2023/04/02 16:41:50;;;;;;;3.30;2.97;;;7.20;99.90;;;;;;10389292;28;20347;-68
2023/04/02 16:47:26;;;;;;;3.73;2.70;;;7.20;99.90;;;;;;10415161;28;20902;-68
2023/04/02 16:52:57;;;;;;;3.80;2.80;;;7.20;99.90;;;;;;10384025;28;20210;-69
2023/04/02 16:58:27;;;;;;;3.63;2.43;;;7.10;99.90;;;;;;10391568;28;20236;-67
2023/04/02 17:03:51;;;;;;;3.03;2.73;;;7.00;99.90;;;;;;10388218;28;20255;-66
2023/04/02 17:09:06;;;;;;;2.60;2.40;;;6.90;99.90;;;;;;10391850;28;20274;-67
2023/04/02 17:14:16;;;;;;;2.37;2.20;;;6.90;99.90;;;;;;10396175;28;20219;-67
2023/04/02 17:19:19;;;;;;;2.40;2.17;;;6.90;99.90;;;;;;10427974;28;20223;-68
2023/04/02 17:24:29;;;;;;;4.70;2.10;;;6.90;99.90;;;;;;10394758;28;20216;-67
2023/04/02 17:29:37;;;;;;;3.90;2.20;;;6.90;99.90;;;;;;10410916;28;20703;-67
2023/04/02 17:34:37;;;;;;;3.30;2.40;;;6.90;99.90;;;;;;10380158;28;20691;-67
2023/04/02 17:40:08;;;;;;;3.97;2.40;;;6.80;99.90;;;;;;10394991;28;20224;-67
2023/04/02 17:45:36;;;;;;;2.97;2.03;;;6.80;99.90;;;;;;10423461;28;20585;-68
2023/04/02 17:50:50;;;;;;;2.77;2.20;;;6.70;99.90;;;;;;10383600;28;20262;-67
2023/04/02 17:56:22;;;;;;;4.17;2.30;;;6.80;99.90;;;;;;10389993;28;20228;-68
2023/04/02 18:01:45;;;;;;;2.97;2.50;;;6.70;99.90;;;;;;10419190;28;20303;-68
2023/04/02 18:07:08;;;;;;;2.40;2.20;;;6.70;99.90;;;;;;10387112;28;20579;-66
2023/04/02 18:12:32;;;;;;;3.30;2.40;;;6.70;99.90;;;;;;10392679;28;20631;-66
2023/04/02 18:17:38;;;;;;;3.13;2.27;;;6.70;99.90;;;;;;10378638;28;20713;-65
2023/04/02 18:22:39;;;;;;;2.70;2.43;;;6.60;99.90;;;;;;10424958;28;20491;-66
2023/04/02 18:27:51;;;;;;;3.43;2.63;;;6.60;99.90;;;;;;10380822;28;20212;-67
2023/04/02 18:33:01;;;;;;;2.37;2.17;;;6.50;99.90;;;;;;10377301;28;20232;-67
2023/04/02 18:38:30;;;;;;;4.63;2.57;;;6.50;99.90;;;;;;10389710;28;20312;-66
2023/04/02 18:43:50;;;;;;;2.73;2.37;;;6.50;99.90;;;;;;10386436;28;20677;-67
2023/04/02 18:49:33;;;;;;;4.37;2.80;;;6.40;99.90;;;;;;10417967;28;20213;-65
2023/04/02 18:54:40;;;;;;;3.63;2.73;;;6.40;99.90;;;;;;10371939;28;20215;-66
2023/04/02 18:59:50;;;;;;;2.97;2.43;;;6.40;99.90;;;;;;10382537;28;20224;-67
2023/04/02 19:05:12;;;;;;;3.27;2.37;;;6.40;99.90;;;;;;10384702;28;20221;-68
2023/04/02 19:10:30;;;;;;;3.33;2.70;;;6.40;99.90;;;;;;10371409;28;20233;-66
2023/04/02 19:15:45;;;;;;;3.57;2.57;;;6.40;99.90;;;;;;10407387;28;20560;-67
2023/04/02 19:20:53;;;;;;;3.30;2.10;;;6.40;99.90;;;;;;10379806;28;20618;-67
2023/04/02 19:26:03;;;;;;;3.00;2.70;;;6.40;99.90;;;;;;10380477;28;20300;-67
2023/04/02 19:31:33;;;;;;;3.07;2.50;;;6.40;99.90;;;;;;10381817;28;20272;-67
2023/04/02 19:36:49;;;;;;;3.10;2.30;;;6.40;99.90;;;;;;10368263;28;20249;-70
2023/04/02 19:41:55;;;;;;;3.17;2.43;;;6.40;99.90;;;;;;10386086;28;20224;-66
2023/04/02 19:46:56;;;;;;;2.93;2.50;;;6.40;99.90;;;;;;10419072;28;20316;-68
2023/04/02 19:51:57;;;;;;;4.27;2.67;;;6.40;99.90;;;;;;10379001;28;20754;-68
2023/04/02 19:56:58;;;;;;;5.97;2.83;;;6.40;99.90;;;;;;10419293;28;20224;-69
2023/04/02 20:02:03;;;;;;;5.63;3.20;;;6.60;99.90;;;;;;10392386;28;20624;-70
2023/04/02 20:07:03;;;;;;;5.40;3.07;;;6.70;99.90;;;;;;10394997;28;20219;-68
2023/04/02 20:12:04;;;;;;;3.50;2.73;;;6.70;99.90;;;;;;10392969;28;20234;-68
2023/04/02 20:17:05;;;;;;;5.93;3.50;;;6.60;99.90;;;;;;10386607;28;20582;-68
2023/04/02 20:22:05;;;;;;;3.53;2.47;;;6.50;99.90;;;;;;10394752;28;20220;-65
2023/04/02 20:27:06;;;;;;;2.50;1.87;;;6.30;99.90;;;;;;10384979;28;20231;-66
2023/04/02 20:32:08;;;;;;;2.33;2.07;;;6.20;99.90;;;;;;10388232;28;20256;-65
2023/04/02 20:37:09;;;;;;;2.70;2.00;;;6.20;99.90;;;;;;10390957;28;20629;-65
2023/04/02 20:42:09;;;;;;;3.20;2.20;;;6.20;99.90;;;;;;10394561;28;20274;-66
2023/04/02 20:47:11;;;;;;;3.63;1.80;;;6.20;99.90;;;;;;10388131;28;20668;-68
2023/04/02 20:52:11;;;;;;;4.17;2.23;;;6.30;99.90;;;;;;10395291;28;20228;-66
2023/04/02 20:57:12;;;;;;;4.33;2.30;;;6.30;99.90;;;;;;10389912;28;20328;-65
2023/04/02 21:02:13;;;;;;;4.83;2.80;;;6.30;99.90;;;;;;10382233;28;20247;-65
2023/04/02 21:07:13;;;;;;;4.33;2.97;;;6.30;99.90;;;;;;10390660;28;20228;-64
2023/04/02 21:12:14;;;;;;;7.43;3.00;;;6.20;99.90;;;;;;10388065;28;20241;-63
2023/04/02 21:17:15;;;;;;;4.27;2.80;;;6.30;99.90;;;;;;10391055;28;20610;-65
2023/04/02 21:22:16;;;;;;;4.13;2.57;;;6.40;99.90;;;;;;10387062;28;20235;-65
2023/04/02 21:27:16;;;;;;;6.60;2.77;;;6.40;99.90;;;;;;10387144;28;20600;-64
2023/04/02 21:32:17;;;;;;;3.60;2.50;;;6.30;99.90;;;;;;10394069;28;20244;-64
2023/04/02 21:37:17;;;;;;;3.97;2.27;;;6.20;99.90;;;;;;10420761;28;20233;-65
2023/04/02 21:42:18;;;;;;;2.93;2.30;;;6.10;99.90;;;;;;10394189;28;20222;-65
2023/04/02 21:47:18;;;;;;;4.70;2.43;;;6.00;99.90;;;;;;10388454;28;20225;-65
2023/04/02 21:52:22;;;;;;;5.53;3.10;;;6.00;99.90;;;;;;10387909;28;20229;-64
2023/04/02 21:57:25;;;;;;;4.13;2.67;;;6.00;99.90;;;;;;10389443;28;20684;-65
2023/04/02 22:02:29;;;;;;;6.03;2.80;;;6.10;99.90;;;;;;10393933;28;20259;-64
2023/04/02 22:07:30;;;;;;;3.27;2.63;;;6.10;99.90;;;;;;10394104;28;20261;-65
2023/04/02 22:12:30;;;;;;;4.63;2.77;;;6.10;99.90;;;;;;10417083;28;20826;-64
2023/04/02 22:17:31;;;;;;;5.60;3.07;;;6.10;99.90;;;;;;10385299;28;20300;-64
2023/04/02 22:22:31;;;;;;;6.37;3.10;;;6.10;99.90;;;;;;10385024;28;20225;-66
2023/04/02 22:27:32;;;;;;;2.83;2.30;;;6.10;99.90;;;;;;10387545;28;20255;-66
2023/04/02 22:32:34;;;;;;;6.90;2.67;;;6.10;99.90;;;;;;10376749;28;20699;-66
2023/04/02 22:37:34;;;;;;;4.37;2.07;;;6.00;99.90;;;;;;10414668;28;20229;-65
2023/04/02 22:42:37;;;;;;;4.70;2.33;;;5.90;99.90;;;;;;10394096;28;20228;-66
2023/04/02 22:47:37;;;;;;;2.80;2.17;;;5.90;99.90;;;;;;10388593;28;20240;-66
2023/04/02 22:52:44;;;;;;;3.50;2.20;;;5.90;99.90;;;;;;10385548;28;20229;-65
2023/04/02 22:57:45;;;;;;;2.93;2.40;;;5.90;99.90;;;;;;10385099;28;20239;-65
2023/04/02 23:02:46;;;;;;;3.43;2.30;;;5.90;99.90;;;;;;10388868;28;20232;-65
2023/04/02 23:07:46;;;;;;;2.60;2.40;;;5.80;99.90;;;;;;10414445;28;20587;-64
2023/04/02 23:12:47;;;;;;;2.60;2.30;;;5.70;99.90;;;;;;10422021;28;20229;-64
2023/04/02 23:17:47;;;;;;;4.40;2.50;;;5.70;99.90;;;;;;10385437;28;20229;-66
2023/04/02 23:22:48;;;;;;;5.17;2.50;;;5.70;99.90;;;;;;10389663;28;20235;-64
2023/04/02 23:27:48;;;;;;;2.57;2.37;;;5.70;99.90;;;;;;10385580;28;20915;-64
2023/04/02 23:32:49;;;;;;;2.97;2.30;;;5.70;99.90;;;;;;10388580;28;20288;-64
2023/04/02 23:37:50;;;;;;;2.30;2.10;;;5.60;99.90;;;;;;10381576;28;20339;-65
2023/04/02 23:42:50;;;;;;;6.80;2.40;;;5.60;99.90;;;;;;10383488;28;20571;-66
2023/04/02 23:47:51;;;;;;;2.73;2.17;;;5.60;99.90;;;;;;10385322;28;20236;-63
2023/04/02 23:52:51;;;;;;;3.67;2.17;;;5.50;99.90;;;;;;10386960;28;20239;-64
2023/04/02 23:57:52;;;;;;;3.57;2.07;;;5.50;99.90;;;;;;10385016;28;20232;-64
